sensor_id;sensor_type;location;lat;lon;timestamp;P1;durP1;ratioP1;P2;durP2;ratioP2
13234;SDS011;6683;48.506;9.050;2023-03-01T00:01:14;11.87;;;8.57;;
13234;SDS011;6683;48.506;9.050;2023-03-01T00:04:18;11.80;;;8.40;;
13234;SDS011;6683;48.506;9.050;2023-03-01T00:07:20;11.10;;;8.57;;
13234;SDS011;6683;48.506;9.050;2023-03-01T00:10:22;13.40;;;9.20;;
13234;SDS011;6683;48.506;9.050;2023-03-01T00:13:28;13.43;;;8.27;;
13234;SDS011;6683;48.506;9.050;2023-03-01T00:16:31;13.30;;;7.67;;
13234;SDS011;6683;48.506;9.050;2023-03-01T00:19:35;11.30;;;8.17;;
13234;SDS011;6683;48.506;9.050;2023-03-01T00:22:38;12.87;;;8.97;;
13234;SDS011;6683;48.506;9.050;2023-03-01T00:25:41;12.43;;;9.40;;
13234;SDS011;6683;48.506;9.050;2023-03-01T00:28:45;12.17;;;8.53;;
13234;SDS011;6683;48.506;9.050;2023-03-01T00:31:48;11.10;;;8.40;;
13234;SDS011;6683;48.506;9.050;2023-03-01T00:34:50;13.63;;;9.80;;
13234;SDS011;6683;48.506;9.050;2023-03-01T00:37:56;14.07;;;9.20;;
13234;SDS011;6683;48.506;9.050;2023-03-01T00:41:02;13.00;;;9.13;;
13234;SDS011;6683;48.506;9.050;2023-03-01T00:44:07;14.83;;;9.13;;
13234;SDS011;6683;48.506;9.050;2023-03-01T00:47:10;14.13;;;9.50;;
13234;SDS011;6683;48.506;9.050;2023-03-01T00:50:13;13.17;;;9.40;;
13234;SDS011;6683;48.506;9.050;2023-03-01T00:53:17;15.13;;;10.30;;
13234;SDS011;6683;48.506;9.050;2023-03-01T00:56:19;15.23;;;9.97;;
13234;SDS011;6683;48.506;9.050;2023-03-01T00:59:23;13.10;;;9.47;;
13234;SDS011;6683;48.506;9.050;2023-03-01T01:02:26;14.37;;;9.97;;
13234;SDS011;6683;48.506;9.050;2023-03-01T01:05:28;12.90;;;9.47;;
13234;SDS011;6683;48.506;9.050;2023-03-01T01:08:30;12.70;;;9.93;;
13234;SDS011;6683;48.506;9.050;2023-03-01T01:11:33;13.37;;;9.83;;
13234;SDS011;6683;48.506;9.050;2023-03-01T01:14:37;15.17;;;10.80;;
13234;SDS011;6683;48.506;9.050;2023-03-01T01:17:40;14.83;;;10.20;;
13234;SDS011;6683;48.506;9.050;2023-03-01T01:20:42;15.73;;;10.40;;
13234;SDS011;6683;48.506;9.050;2023-03-01T01:23:45;16.13;;;10.67;;
13234;SDS011;6683;48.506;9.050;2023-03-01T01:26:49;15.23;;;9.63;;
13234;SDS011;6683;48.506;9.050;2023-03-01T01:29:53;14.47;;;9.20;;
13234;SDS011;6683;48.506;9.050;2023-03-01T01:32:56;12.70;;;9.70;;
13234;SDS011;6683;48.506;9.050;2023-03-01T01:35:58;18.27;;;10.03;;
13234;SDS011;6683;48.506;9.050;2023-03-01T01:39:00;14.37;;;9.60;;
13234;SDS011;6683;48.506;9.050;2023-03-01T01:42:03;15.10;;;10.13;;
13234;SDS011;6683;48.506;9.050;2023-03-01T01:48:34;15.07;;;10.60;;
13234;SDS011;6683;48.506;9.050;2023-03-01T01:51:42;16.30;;;10.20;;
13234;SDS011;6683;48.506;9.050;2023-03-01T01:54:51;12.97;;;9.70;;
13234;SDS011;6683;48.506;9.050;2023-03-01T01:57:59;14.00;;;9.83;;
13234;SDS011;6683;48.506;9.050;2023-03-01T02:01:07;14.23;;;9.97;;
13234;SDS011;6683;48.506;9.050;2023-03-01T02:04:10;13.33;;;9.63;;
13234;SDS011;6683;48.506;9.050;2023-03-01T02:07:14;15.30;;;9.77;;
13234;SDS011;6683;48.506;9.050;2023-03-01T02:10:19;14.20;;;9.90;;
13234;SDS011;6683;48.506;9.050;2023-03-01T02:13:22;14.27;;;9.90;;
13234;SDS011;6683;48.506;9.050;2023-03-01T02:16:26;15.80;;;9.93;;
13234;SDS011;6683;48.506;9.050;2023-03-01T02:19:32;12.53;;;9.53;;
13234;SDS011;6683;48.506;9.050;2023-03-01T02:22:45;14.07;;;10.03;;
13234;SDS011;6683;48.506;9.050;2023-03-01T02:25:51;16.33;;;10.30;;
13234;SDS011;6683;48.506;9.050;2023-03-01T02:29:00;15.53;;;10.73;;
13234;SDS011;6683;48.506;9.050;2023-03-01T02:32:05;15.40;;;9.77;;
13234;SDS011;6683;48.506;9.050;2023-03-01T02:35:08;13.57;;;9.97;;
13234;SDS011;6683;48.506;9.050;2023-03-01T02:38:13;13.40;;;9.60;;
13234;SDS011;6683;48.506;9.050;2023-03-01T02:41:16;13.53;;;9.70;;
13234;SDS011;6683;48.506;9.050;2023-03-01T02:44:22;14.37;;;9.10;;
13234;SDS011;6683;48.506;9.050;2023-03-01T02:47:24;14.00;;;9.57;;
13234;SDS011;6683;48.506;9.050;2023-03-01T02:50:38;12.87;;;9.30;;
13234;SDS011;6683;48.506;9.050;2023-03-01T02:53:55;11.60;;;8.37;;
13234;SDS011;6683;48.506;9.050;2023-03-01T02:57:07;14.30;;;10.03;;
13234;SDS011;6683;48.506;9.050;2023-03-01T03:00:13;13.53;;;9.20;;
13234;SDS011;6683;48.506;9.050;2023-03-01T03:03:20;15.77;;;10.10;;
13234;SDS011;6683;48.506;9.050;2023-03-01T03:06:22;14.17;;;9.40;;
13234;SDS011;6683;48.506;9.050;2023-03-01T03:09:25;13.33;;;9.10;;
13234;SDS011;6683;48.506;9.050;2023-03-01T03:12:28;14.77;;;9.67;;
13234;SDS011;6683;48.506;9.050;2023-03-01T03:15:31;15.30;;;9.30;;
13234;SDS011;6683;48.506;9.050;2023-03-01T03:18:36;12.40;;;9.07;;
13234;SDS011;6683;48.506;9.050;2023-03-01T03:21:38;16.47;;;9.80;;
13234;SDS011;6683;48.506;9.050;2023-03-01T03:24:41;15.83;;;10.23;;
13234;SDS011;6683;48.506;9.050;2023-03-01T03:27:44;14.70;;;9.67;;
13234;SDS011;6683;48.506;9.050;2023-03-01T03:30:50;12.63;;;9.27;;
13234;SDS011;6683;48.506;9.050;2023-03-01T03:33:52;15.83;;;10.40;;
13234;SDS011;6683;48.506;9.050;2023-03-01T03:36:55;13.87;;;9.70;;
13234;SDS011;6683;48.506;9.050;2023-03-01T03:39:59;13.03;;;9.60;;
13234;SDS011;6683;48.506;9.050;2023-03-01T03:43:02;13.80;;;9.50;;
13234;SDS011;6683;48.506;9.050;2023-03-01T03:46:08;11.90;;;8.90;;
13234;SDS011;6683;48.506;9.050;2023-03-01T03:49:11;14.07;;;9.53;;
13234;SDS011;6683;48.506;9.050;2023-03-01T03:52:13;13.57;;;9.40;;
13234;SDS011;6683;48.506;9.050;2023-03-01T03:55:16;12.43;;;9.23;;
13234;SDS011;6683;48.506;9.050;2023-03-01T03:58:20;12.60;;;9.03;;
13234;SDS011;6683;48.506;9.050;2023-03-01T04:01:26;12.57;;;9.07;;
13234;SDS011;6683;48.506;9.050;2023-03-01T04:04:29;12.07;;;8.77;;
13234;SDS011;6683;48.506;9.050;2023-03-01T04:07:31;14.57;;;10.07;;
13234;SDS011;6683;48.506;9.050;2023-03-01T04:10:34;13.80;;;9.37;;
13234;SDS011;6683;48.506;9.050;2023-03-01T04:13:39;14.83;;;9.60;;
13234;SDS011;6683;48.506;9.050;2023-03-01T04:16:43;13.67;;;9.57;;
13234;SDS011;6683;48.506;9.050;2023-03-01T04:19:45;13.77;;;9.67;;
13234;SDS011;6683;48.506;9.050;2023-03-01T04:22:48;13.97;;;9.63;;
13234;SDS011;6683;48.506;9.050;2023-03-01T04:25:52;13.37;;;9.77;;
13234;SDS011;6683;48.506;9.050;2023-03-01T04:28:56;13.93;;;9.63;;
13234;SDS011;6683;48.506;9.050;2023-03-01T04:32:02;14.43;;;9.87;;
13234;SDS011;6683;48.506;9.050;2023-03-01T04:35:05;13.90;;;9.27;;
13234;SDS011;6683;48.506;9.050;2023-03-01T04:38:08;15.20;;;9.13;;
13234;SDS011;6683;48.506;9.050;2023-03-01T04:41:10;16.77;;;9.60;;
13234;SDS011;6683;48.506;9.050;2023-03-01T04:44:13;13.60;;;9.40;;
13234;SDS011;6683;48.506;9.050;2023-03-01T04:47:17;12.90;;;9.93;;
13234;SDS011;6683;48.506;9.050;2023-03-01T04:50:19;13.37;;;9.33;;
13234;SDS011;6683;48.506;9.050;2023-03-01T04:53:23;14.57;;;8.87;;
13234;SDS011;6683;48.506;9.050;2023-03-01T04:56:26;12.97;;;9.63;;
13234;SDS011;6683;48.506;9.050;2023-03-01T04:59:28;10.73;;;9.17;;
13234;SDS011;6683;48.506;9.050;2023-03-01T05:02:32;12.13;;;9.23;;
13234;SDS011;6683;48.506;9.050;2023-03-01T05:05:35;14.10;;;9.50;;
13234;SDS011;6683;48.506;9.050;2023-03-01T05:08:39;15.10;;;9.47;;
13234;SDS011;6683;48.506;9.050;2023-03-01T05:11:42;14.57;;;9.43;;
13234;SDS011;6683;48.506;9.050;2023-03-01T05:14:45;14.47;;;9.97;;
13234;SDS011;6683;48.506;9.050;2023-03-01T05:17:49;13.03;;;9.33;;
13234;SDS011;6683;48.506;9.050;2023-03-01T05:20:51;13.53;;;9.03;;
13234;SDS011;6683;48.506;9.050;2023-03-01T05:23:56;13.30;;;8.87;;
13234;SDS011;6683;48.506;9.050;2023-03-01T05:26:58;13.90;;;9.00;;
13234;SDS011;6683;48.506;9.050;2023-03-01T05:30:02;15.20;;;10.13;;
13234;SDS011;6683;48.506;9.050;2023-03-01T05:33:14;14.10;;;10.40;;
13234;SDS011;6683;48.506;9.050;2023-03-01T05:36:17;15.17;;;10.33;;
13234;SDS011;6683;48.506;9.050;2023-03-01T05:39:20;13.87;;;9.93;;
13234;SDS011;6683;48.506;9.050;2023-03-01T05:42:22;15.03;;;10.00;;
13234;SDS011;6683;48.506;9.050;2023-03-01T05:45:25;12.93;;;9.63;;
13234;SDS011;6683;48.506;9.050;2023-03-01T05:48:30;15.70;;;9.87;;
13234;SDS011;6683;48.506;9.050;2023-03-01T05:51:32;13.40;;;9.87;;
13234;SDS011;6683;48.506;9.050;2023-03-01T05:54:34;13.90;;;9.87;;
13234;SDS011;6683;48.506;9.050;2023-03-01T05:57:37;13.03;;;9.90;;
13234;SDS011;6683;48.506;9.050;2023-03-01T06:00:39;12.60;;;9.27;;
13234;SDS011;6683;48.506;9.050;2023-03-01T06:03:44;13.03;;;9.97;;
13234;SDS011;6683;48.506;9.050;2023-03-01T06:06:46;13.10;;;9.53;;
13234;SDS011;6683;48.506;9.050;2023-03-01T06:09:48;13.00;;;9.27;;
13234;SDS011;6683;48.506;9.050;2023-03-01T06:12:51;14.43;;;9.90;;
13234;SDS011;6683;48.506;9.050;2023-03-01T06:15:54;13.40;;;10.27;;
13234;SDS011;6683;48.506;9.050;2023-03-01T06:18:58;17.87;;;10.63;;
13234;SDS011;6683;48.506;9.050;2023-03-01T06:22:01;15.73;;;10.13;;
13234;SDS011;6683;48.506;9.050;2023-03-01T06:25:03;16.23;;;10.30;;
13234;SDS011;6683;48.506;9.050;2023-03-01T06:28:07;13.73;;;9.57;;
13234;SDS011;6683;48.506;9.050;2023-03-01T06:31:09;13.53;;;9.20;;
13234;SDS011;6683;48.506;9.050;2023-03-01T06:34:19;14.93;;;10.23;;
13234;SDS011;6683;48.506;9.050;2023-03-01T06:37:21;16.20;;;11.63;;
13234;SDS011;6683;48.506;9.050;2023-03-01T06:40:24;16.30;;;12.10;;
13234;SDS011;6683;48.506;9.050;2023-03-01T06:43:26;15.80;;;11.23;;
13234;SDS011;6683;48.506;9.050;2023-03-01T06:46:29;17.20;;;11.40;;
13234;SDS011;6683;48.506;9.050;2023-03-01T06:49:32;17.80;;;12.33;;
13234;SDS011;6683;48.506;9.050;2023-03-01T06:52:35;15.20;;;11.27;;
13234;SDS011;6683;48.506;9.050;2023-03-01T06:55:38;17.27;;;11.80;;
13234;SDS011;6683;48.506;9.050;2023-03-01T06:58:42;16.77;;;11.70;;
13234;SDS011;6683;48.506;9.050;2023-03-01T07:01:45;28.83;;;16.77;;
13234;SDS011;6683;48.506;9.050;2023-03-01T07:04:49;18.43;;;13.20;;
13234;SDS011;6683;48.506;9.050;2023-03-01T07:08:02;15.63;;;11.57;;
13234;SDS011;6683;48.506;9.050;2023-03-01T07:11:44;16.63;;;11.80;;
13234;SDS011;6683;48.506;9.050;2023-03-01T07:14:47;18.50;;;12.33;;
13234;SDS011;6683;48.506;9.050;2023-03-01T07:17:49;15.50;;;11.03;;
13234;SDS011;6683;48.506;9.050;2023-03-01T07:20:58;18.00;;;12.83;;
13234;SDS011;6683;48.506;9.050;2023-03-01T07:24:05;16.13;;;11.87;;
13234;SDS011;6683;48.506;9.050;2023-03-01T07:27:09;16.63;;;12.40;;
13234;SDS011;6683;48.506;9.050;2023-03-01T07:30:12;17.07;;;12.03;;
13234;SDS011;6683;48.506;9.050;2023-03-01T07:33:14;19.03;;;11.73;;
13234;SDS011;6683;48.506;9.050;2023-03-01T07:36:20;16.23;;;11.97;;
13234;SDS011;6683;48.506;9.050;2023-03-01T07:39:26;18.83;;;11.70;;
13234;SDS011;6683;48.506;9.050;2023-03-01T07:42:28;16.03;;;11.93;;
13234;SDS011;6683;48.506;9.050;2023-03-01T07:45:31;17.63;;;12.13;;
13234;SDS011;6683;48.506;9.050;2023-03-01T07:48:33;15.63;;;11.83;;
13234;SDS011;6683;48.506;9.050;2023-03-01T07:51:37;17.50;;;12.40;;
13234;SDS011;6683;48.506;9.050;2023-03-01T07:54:42;16.00;;;11.57;;
13234;SDS011;6683;48.506;9.050;2023-03-01T07:57:45;16.23;;;12.17;;
13234;SDS011;6683;48.506;9.050;2023-03-01T08:00:48;16.73;;;11.63;;
13234;SDS011;6683;48.506;9.050;2023-03-01T08:03:55;16.53;;;11.83;;
13234;SDS011;6683;48.506;9.050;2023-03-01T08:06:59;15.57;;;11.70;;
13234;SDS011;6683;48.506;9.050;2023-03-01T08:10:01;16.27;;;12.27;;
13234;SDS011;6683;48.506;9.050;2023-03-01T08:13:04;14.67;;;10.97;;
13234;SDS011;6683;48.506;9.050;2023-03-01T08:16:07;17.37;;;12.47;;
13234;SDS011;6683;48.506;9.050;2023-03-01T08:19:15;15.97;;;12.10;;
13234;SDS011;6683;48.506;9.050;2023-03-01T08:22:22;15.50;;;11.93;;
13234;SDS011;6683;48.506;9.050;2023-03-01T08:25:24;15.53;;;11.80;;
13234;SDS011;6683;48.506;9.050;2023-03-01T08:28:27;14.17;;;11.43;;
13234;SDS011;6683;48.506;9.050;2023-03-01T08:31:30;16.07;;;11.80;;
13234;SDS011;6683;48.506;9.050;2023-03-01T08:34:35;17.27;;;12.30;;
13234;SDS011;6683;48.506;9.050;2023-03-01T08:37:39;15.63;;;11.67;;
13234;SDS011;6683;48.506;9.050;2023-03-01T08:40:42;14.20;;;10.60;;
13234;SDS011;6683;48.506;9.050;2023-03-01T08:43:44;15.20;;;11.87;;
13234;SDS011;6683;48.506;9.050;2023-03-01T08:46:47;16.07;;;11.47;;
13234;SDS011;6683;48.506;9.050;2023-03-01T08:49:51;16.87;;;12.40;;
13234;SDS011;6683;48.506;9.050;2023-03-01T08:52:55;15.43;;;12.23;;
13234;SDS011;6683;48.506;9.050;2023-03-01T08:55:59;15.70;;;13.27;;
13234;SDS011;6683;48.506;9.050;2023-03-01T08:59:02;15.33;;;12.33;;
13234;SDS011;6683;48.506;9.050;2023-03-01T09:02:05;14.37;;;12.10;;
13234;SDS011;6683;48.506;9.050;2023-03-01T09:05:12;14.50;;;11.00;;
13234;SDS011;6683;48.506;9.050;2023-03-01T09:08:16;17.60;;;13.43;;
13234;SDS011;6683;48.506;9.050;2023-03-01T09:11:19;17.33;;;12.83;;
13234;SDS011;6683;48.506;9.050;2023-03-01T09:14:23;15.07;;;12.63;;
13234;SDS011;6683;48.506;9.050;2023-03-01T09:17:25;16.33;;;12.70;;
13234;SDS011;6683;48.506;9.050;2023-03-01T09:20:27;15.10;;;12.90;;
13234;SDS011;6683;48.506;9.050;2023-03-01T09:23:32;17.17;;;12.10;;
13234;SDS011;6683;48.506;9.050;2023-03-01T09:26:36;14.00;;;12.47;;
13234;SDS011;6683;48.506;9.050;2023-03-01T09:29:38;15.13;;;11.73;;
13234;SDS011;6683;48.506;9.050;2023-03-01T09:32:41;15.03;;;13.10;;
13234;SDS011;6683;48.506;9.050;2023-03-01T09:35:44;14.17;;;12.57;;
13234;SDS011;6683;48.506;9.050;2023-03-01T09:38:49;17.47;;;13.80;;
13234;SDS011;6683;48.506;9.050;2023-03-01T09:41:54;16.47;;;13.93;;
13234;SDS011;6683;48.506;9.050;2023-03-01T09:45:03;15.47;;;13.07;;
13234;SDS011;6683;48.506;9.050;2023-03-01T09:48:13;14.43;;;12.50;;
13234;SDS011;6683;48.506;9.050;2023-03-01T09:51:20;13.93;;;12.53;;
13234;SDS011;6683;48.506;9.050;2023-03-01T09:54:29;17.27;;;12.43;;
13234;SDS011;6683;48.506;9.050;2023-03-01T09:57:34;15.20;;;12.97;;
13234;SDS011;6683;48.506;9.050;2023-03-01T10:00:44;15.20;;;13.07;;
13234;SDS011;6683;48.506;9.050;2023-03-01T10:03:57;15.37;;;12.67;;
13234;SDS011;6683;48.506;9.050;2023-03-01T10:07:18;15.90;;;12.83;;
13234;SDS011;6683;48.506;9.050;2023-03-01T10:10:33;14.87;;;13.27;;
13234;SDS011;6683;48.506;9.050;2023-03-01T10:13:42;14.07;;;12.57;;
13234;SDS011;6683;48.506;9.050;2023-03-01T10:16:54;15.83;;;13.30;;
13234;SDS011;6683;48.506;9.050;2023-03-01T10:20:10;14.40;;;12.90;;
13234;SDS011;6683;48.506;9.050;2023-03-01T10:23:22;14.80;;;13.27;;
13234;SDS011;6683;48.506;9.050;2023-03-01T10:26:30;14.27;;;12.17;;
13234;SDS011;6683;48.506;9.050;2023-03-01T10:29:47;14.67;;;13.07;;
13234;SDS011;6683;48.506;9.050;2023-03-01T10:32:56;13.77;;;12.10;;
13234;SDS011;6683;48.506;9.050;2023-03-01T10:36:00;15.23;;;12.87;;
13234;SDS011;6683;48.506;9.050;2023-03-01T10:39:03;13.93;;;12.47;;
13234;SDS011;6683;48.506;9.050;2023-03-01T10:42:22;14.47;;;12.97;;
13234;SDS011;6683;48.506;9.050;2023-03-01T10:45:31;13.63;;;11.77;;
13234;SDS011;6683;48.506;9.050;2023-03-01T10:48:37;13.37;;;11.90;;
13234;SDS011;6683;48.506;9.050;2023-03-01T10:51:41;13.70;;;12.27;;
13234;SDS011;6683;48.506;9.050;2023-03-01T10:54:50;13.07;;;11.67;;
13234;SDS011;6683;48.506;9.050;2023-03-01T10:58:15;14.50;;;13.00;;
13234;SDS011;6683;48.506;9.050;2023-03-01T11:01:25;13.27;;;11.87;;
13234;SDS011;6683;48.506;9.050;2023-03-01T11:04:29;13.77;;;12.23;;
13234;SDS011;6683;48.506;9.050;2023-03-01T11:07:32;13.20;;;11.67;;
13234;SDS011;6683;48.506;9.050;2023-03-01T11:10:49;12.80;;;11.43;;
13234;SDS011;6683;48.506;9.050;2023-03-01T11:13:54;13.43;;;11.63;;
13234;SDS011;6683;48.506;9.050;2023-03-01T11:17:01;12.90;;;11.53;;
13234;SDS011;6683;48.506;9.050;2023-03-01T11:20:10;12.90;;;11.60;;
13234;SDS011;6683;48.506;9.050;2023-03-01T11:23:24;13.73;;;10.90;;
13234;SDS011;6683;48.506;9.050;2023-03-01T11:26:29;12.07;;;10.87;;
13234;SDS011;6683;48.506;9.050;2023-03-01T11:29:39;12.10;;;10.90;;
13234;SDS011;6683;48.506;9.050;2023-03-01T11:32:49;13.30;;;11.67;;
13234;SDS011;6683;48.506;9.050;2023-03-01T11:36:05;14.03;;;11.80;;
13234;SDS011;6683;48.506;9.050;2023-03-01T11:39:20;12.10;;;11.00;;
13234;SDS011;6683;48.506;9.050;2023-03-01T11:42:37;13.37;;;11.23;;
13234;SDS011;6683;48.506;9.050;2023-03-01T11:45:58;12.77;;;10.40;;
13234;SDS011;6683;48.506;9.050;2023-03-01T11:49:51;12.10;;;10.83;;
13234;SDS011;6683;48.506;9.050;2023-03-01T11:53:39;11.20;;;10.07;;
13234;SDS011;6683;48.506;9.050;2023-03-01T11:57:08;13.23;;;11.50;;
13234;SDS011;6683;48.506;9.050;2023-03-01T12:00:26;11.53;;;10.33;;
13234;SDS011;6683;48.506;9.050;2023-03-01T12:03:54;12.17;;;10.77;;
13234;SDS011;6683;48.506;9.050;2023-03-01T12:07:21;12.57;;;11.17;;
13234;SDS011;6683;48.506;9.050;2023-03-01T12:10:40;12.13;;;10.83;;
13234;SDS011;6683;48.506;9.050;2023-03-01T12:17:51;11.27;;;9.90;;
13234;SDS011;6683;48.506;9.050;2023-03-01T12:21:13;13.63;;;10.33;;
13234;SDS011;6683;48.506;9.050;2023-03-01T12:24:28;11.70;;;10.50;;
13234;SDS011;6683;48.506;9.050;2023-03-01T12:32:00;11.93;;;10.73;;
13234;SDS011;6683;48.506;9.050;2023-03-01T12:35:27;11.70;;;10.50;;
13234;SDS011;6683;48.506;9.050;2023-03-01T12:38:52;12.13;;;10.23;;
13234;SDS011;6683;48.506;9.050;2023-03-01T12:42:08;12.30;;;11.00;;
13234;SDS011;6683;48.506;9.050;2023-03-01T12:48:54;12.07;;;10.10;;
13234;SDS011;6683;48.506;9.050;2023-03-01T12:52:09;11.13;;;9.63;;
13234;SDS011;6683;48.506;9.050;2023-03-01T12:55:29;11.10;;;9.90;;
13234;SDS011;6683;48.506;9.050;2023-03-01T12:58:36;12.13;;;10.63;;
13234;SDS011;6683;48.506;9.050;2023-03-01T13:01:49;12.63;;;10.27;;
13234;SDS011;6683;48.506;9.050;2023-03-01T13:05:01;13.33;;;10.40;;
13234;SDS011;6683;48.506;9.050;2023-03-01T13:08:27;11.33;;;9.43;;
13234;SDS011;6683;48.506;9.050;2023-03-01T13:11:40;11.57;;;9.73;;
13234;SDS011;6683;48.506;9.050;2023-03-01T13:14:45;11.17;;;10.07;;
13234;SDS011;6683;48.506;9.050;2023-03-01T13:17:48;10.77;;;9.67;;
13234;SDS011;6683;48.506;9.050;2023-03-01T13:20:52;11.40;;;9.37;;
13234;SDS011;6683;48.506;9.050;2023-03-01T13:23:57;10.40;;;9.30;;
13234;SDS011;6683;48.506;9.050;2023-03-01T13:27:22;12.47;;;11.17;;
13234;SDS011;6683;48.506;9.050;2023-03-01T13:30:39;12.20;;;10.67;;
13234;SDS011;6683;48.506;9.050;2023-03-01T13:33:44;10.67;;;9.57;;
13234;SDS011;6683;48.506;9.050;2023-03-01T13:36:49;11.77;;;9.27;;
13234;SDS011;6683;48.506;9.050;2023-03-01T13:39:52;11.00;;;9.90;;
13234;SDS011;6683;48.506;9.050;2023-03-01T13:42:56;10.93;;;9.83;;
13234;SDS011;6683;48.506;9.050;2023-03-01T13:45:58;11.73;;;9.73;;
13234;SDS011;6683;48.506;9.050;2023-03-01T13:49:03;13.97;;;10.50;;
13234;SDS011;6683;48.506;9.050;2023-03-01T13:52:05;12.33;;;10.57;;
13234;SDS011;6683;48.506;9.050;2023-03-01T13:55:23;11.87;;;10.17;;
13234;SDS011;6683;48.506;9.050;2023-03-01T13:58:30;12.30;;;10.37;;
13234;SDS011;6683;48.506;9.050;2023-03-01T14:01:35;11.17;;;9.73;;
13234;SDS011;6683;48.506;9.050;2023-03-01T14:04:38;13.70;;;10.27;;
13234;SDS011;6683;48.506;9.050;2023-03-01T14:07:40;10.80;;;8.93;;
13234;SDS011;6683;48.506;9.050;2023-03-01T14:10:44;11.27;;;9.97;;
13234;SDS011;6683;48.506;9.050;2023-03-01T14:14:13;14.57;;;10.93;;
13234;SDS011;6683;48.506;9.050;2023-03-01T14:20:59;11.53;;;10.13;;
13234;SDS011;6683;48.506;9.050;2023-03-01T14:24:14;12.63;;;10.33;;
13234;SDS011;6683;48.506;9.050;2023-03-01T14:27:21;12.13;;;9.60;;
13234;SDS011;6683;48.506;9.050;2023-03-01T14:30:31;11.33;;;9.27;;
13234;SDS011;6683;48.506;9.050;2023-03-01T14:33:39;11.37;;;9.70;;
13234;SDS011;6683;48.506;9.050;2023-03-01T14:36:41;12.20;;;10.07;;
13234;SDS011;6683;48.506;9.050;2023-03-01T14:39:44;14.03;;;11.57;;
13234;SDS011;6683;48.506;9.050;2023-03-01T14:42:48;13.20;;;10.53;;
13234;SDS011;6683;48.506;9.050;2023-03-01T14:45:53;11.67;;;10.47;;
13234;SDS011;6683;48.506;9.050;2023-03-01T14:48:56;12.17;;;9.57;;
13234;SDS011;6683;48.506;9.050;2023-03-01T14:52:06;9.50;;;8.50;;
13234;SDS011;6683;48.506;9.050;2023-03-01T14:55:19;12.77;;;10.10;;
13234;SDS011;6683;48.506;9.050;2023-03-01T14:58:26;11.80;;;9.80;;
13234;SDS011;6683;48.506;9.050;2023-03-01T15:01:30;13.00;;;10.20;;
13234;SDS011;6683;48.506;9.050;2023-03-01T15:04:32;11.50;;;9.67;;
13234;SDS011;6683;48.506;9.050;2023-03-01T15:07:36;10.70;;;9.30;;
13234;SDS011;6683;48.506;9.050;2023-03-01T15:10:54;11.63;;;9.57;;
13234;SDS011;6683;48.506;9.050;2023-03-01T15:14:00;9.77;;;8.77;;
13234;SDS011;6683;48.506;9.050;2023-03-01T15:17:03;10.33;;;9.27;;
13234;SDS011;6683;48.506;9.050;2023-03-01T15:20:13;12.20;;;9.17;;
13234;SDS011;6683;48.506;9.050;2023-03-01T15:23:22;9.97;;;8.97;;
13234;SDS011;6683;48.506;9.050;2023-03-01T15:26:28;11.07;;;9.73;;
13234;SDS011;6683;48.506;9.050;2023-03-01T15:29:41;10.07;;;8.90;;
13234;SDS011;6683;48.506;9.050;2023-03-01T15:36:40;11.33;;;8.83;;
13234;SDS011;6683;48.506;9.050;2023-03-01T15:39:52;12.40;;;9.90;;
13234;SDS011;6683;48.506;9.050;2023-03-01T15:42:56;11.30;;;9.87;;
13234;SDS011;6683;48.506;9.050;2023-03-01T15:46:00;11.60;;;9.33;;
13234;SDS011;6683;48.506;9.050;2023-03-01T15:49:04;11.40;;;9.73;;
13234;SDS011;6683;48.506;9.050;2023-03-01T15:52:27;11.77;;;8.73;;
13234;SDS011;6683;48.506;9.050;2023-03-01T15:55:35;11.80;;;9.63;;
13234;SDS011;6683;48.506;9.050;2023-03-01T15:58:37;11.83;;;9.63;;
13234;SDS011;6683;48.506;9.050;2023-03-01T16:01:39;11.33;;;9.47;;
13234;SDS011;6683;48.506;9.050;2023-03-01T16:04:44;12.87;;;10.53;;
13234;SDS011;6683;48.506;9.050;2023-03-01T16:07:47;11.07;;;9.87;;
13234;SDS011;6683;48.506;9.050;2023-03-01T16:10:49;11.07;;;9.30;;
13234;SDS011;6683;48.506;9.050;2023-03-01T16:13:51;10.97;;;9.30;;
13234;SDS011;6683;48.506;9.050;2023-03-01T16:16:53;11.50;;;8.97;;
13234;SDS011;6683;48.506;9.050;2023-03-01T16:19:57;12.33;;;10.10;;
13234;SDS011;6683;48.506;9.050;2023-03-01T16:23:00;11.90;;;10.40;;
13234;SDS011;6683;48.506;9.050;2023-03-01T16:26:09;13.03;;;9.73;;
13234;SDS011;6683;48.506;9.050;2023-03-01T16:29:11;13.40;;;9.47;;
13234;SDS011;6683;48.506;9.050;2023-03-01T16:32:15;10.33;;;9.23;;
13234;SDS011;6683;48.506;9.050;2023-03-01T16:35:19;13.63;;;9.23;;
13234;SDS011;6683;48.506;9.050;2023-03-01T16:38:23;12.10;;;8.83;;
13234;SDS011;6683;48.506;9.050;2023-03-01T16:41:26;10.83;;;8.67;;
13234;SDS011;6683;48.506;9.050;2023-03-01T16:44:29;11.07;;;9.70;;
13234;SDS011;6683;48.506;9.050;2023-03-01T16:47:32;11.43;;;9.63;;
13234;SDS011;6683;48.506;9.050;2023-03-01T16:50:36;10.67;;;8.30;;
13234;SDS011;6683;48.506;9.050;2023-03-01T16:53:39;11.27;;;8.97;;
13234;SDS011;6683;48.506;9.050;2023-03-01T16:56:42;12.93;;;9.30;;
13234;SDS011;6683;48.506;9.050;2023-03-01T16:59:44;10.90;;;8.73;;
13234;SDS011;6683;48.506;9.050;2023-03-01T17:02:47;10.40;;;8.57;;
13234;SDS011;6683;48.506;9.050;2023-03-01T17:05:51;9.87;;;8.70;;
13234;SDS011;6683;48.506;9.050;2023-03-01T17:08:53;11.00;;;9.27;;
13234;SDS011;6683;48.506;9.050;2023-03-01T17:11:56;9.17;;;8.27;;
13234;SDS011;6683;48.506;9.050;2023-03-01T17:14:58;10.87;;;9.63;;
13234;SDS011;6683;48.506;9.050;2023-03-01T17:18:01;14.67;;;9.53;;
13234;SDS011;6683;48.506;9.050;2023-03-01T17:21:06;11.33;;;9.33;;
13234;SDS011;6683;48.506;9.050;2023-03-01T17:24:09;11.53;;;8.83;;
13234;SDS011;6683;48.506;9.050;2023-03-01T17:27:12;11.47;;;9.80;;
13234;SDS011;6683;48.506;9.050;2023-03-01T17:30:16;12.53;;;9.23;;
13234;SDS011;6683;48.506;9.050;2023-03-01T17:33:22;12.60;;;9.97;;
13234;SDS011;6683;48.506;9.050;2023-03-01T17:36:26;13.00;;;10.03;;
13234;SDS011;6683;48.506;9.050;2023-03-01T17:39:28;12.13;;;9.97;;
13234;SDS011;6683;48.506;9.050;2023-03-01T17:42:35;14.67;;;11.00;;
13234;SDS011;6683;48.506;9.050;2023-03-01T17:45:37;11.70;;;9.40;;
13234;SDS011;6683;48.506;9.050;2023-03-01T17:48:43;14.10;;;10.20;;
13234;SDS011;6683;48.506;9.050;2023-03-01T17:51:47;10.97;;;9.63;;
13234;SDS011;6683;48.506;9.050;2023-03-01T17:54:50;12.57;;;9.97;;
13234;SDS011;6683;48.506;9.050;2023-03-01T17:57:54;12.67;;;10.00;;
13234;SDS011;6683;48.506;9.050;2023-03-01T18:01:05;10.93;;;9.30;;
13234;SDS011;6683;48.506;9.050;2023-03-01T18:04:10;14.67;;;10.87;;
13234;SDS011;6683;48.506;9.050;2023-03-01T18:07:13;13.17;;;10.70;;
13234;SDS011;6683;48.506;9.050;2023-03-01T18:10:16;13.43;;;10.57;;
13234;SDS011;6683;48.506;9.050;2023-03-01T18:13:19;12.03;;;9.90;;
13234;SDS011;6683;48.506;9.050;2023-03-01T18:16:21;11.93;;;10.00;;
13234;SDS011;6683;48.506;9.050;2023-03-01T18:19:24;14.53;;;10.40;;
13234;SDS011;6683;48.506;9.050;2023-03-01T18:22:29;13.10;;;10.87;;
13234;SDS011;6683;48.506;9.050;2023-03-01T18:25:31;13.90;;;11.27;;
13234;SDS011;6683;48.506;9.050;2023-03-01T18:28:34;16.40;;;11.57;;
13234;SDS011;6683;48.506;9.050;2023-03-01T18:31:38;16.93;;;11.73;;
13234;SDS011;6683;48.506;9.050;2023-03-01T18:34:40;15.50;;;11.60;;
13234;SDS011;6683;48.506;9.050;2023-03-01T18:37:44;17.70;;;12.00;;
13234;SDS011;6683;48.506;9.050;2023-03-01T18:40:47;15.33;;;12.57;;
13234;SDS011;6683;48.506;9.050;2023-03-01T18:43:51;18.13;;;12.33;;
13234;SDS011;6683;48.506;9.050;2023-03-01T18:46:55;16.43;;;12.07;;
13234;SDS011;6683;48.506;9.050;2023-03-01T18:49:58;18.10;;;12.93;;
13234;SDS011;6683;48.506;9.050;2023-03-01T18:53:02;17.30;;;12.43;;
13234;SDS011;6683;48.506;9.050;2023-03-01T18:56:05;16.77;;;13.20;;